sensor_id;sensor_type;location;lat;lon;timestamp;P1;durP1;ratioP1;P2;durP2;ratioP2
16029;SDS011;34770;49.272;11.070;2023-12-14T02:36:58;11.35;;;9.10;;
16029;SDS011;34770;49.272;11.070;2023-12-14T02:39:29;12.23;;;9.05;;
16029;SDS011;34770;49.272;11.070;2023-12-14T03:42:25;21.02;;;10.27;;
16029;SDS011;34770;49.272;11.070;2023-12-14T03:45:07;14.98;;;8.90;;
16029;SDS011;34770;49.272;11.070;2023-12-14T03:51:26;15.20;;;9.90;;
16029;SDS011;34770;49.272;11.070;2023-12-14T03:53:59;15.77;;;10.02;;
16029;SDS011;34770;49.272;11.070;2023-12-14T03:56:41;13.43;;;9.88;;
16029;SDS011;34770;49.272;11.070;2023-12-14T03:59:53;15.48;;;9.55;;
16029;SDS011;34770;49.272;11.070;2023-12-14T04:03:00;14.63;;;8.93;;
16029;SDS011;34770;49.272;11.070;2023-12-14T04:05:35;15.97;;;9.03;;
16029;SDS011;34770;49.272;11.070;2023-12-14T04:08:05;11.80;;;8.43;;
16029;SDS011;34770;49.272;11.070;2023-12-14T04:10:40;13.77;;;8.98;;
16029;SDS011;34770;49.272;11.070;2023-12-14T04:13:16;14.97;;;10.33;;
16029;SDS011;34770;49.272;11.070;2023-12-14T04:16:09;15.37;;;9.90;;
16029;SDS011;34770;49.272;11.070;2023-12-14T04:18:50;12.33;;;9.10;;
16029;SDS011;34770;49.272;11.070;2023-12-14T04:21:40;12.77;;;8.80;;
16029;SDS011;34770;49.272;11.070;2023-12-14T04:24:33;15.68;;;9.70;;
16029;SDS011;34770;49.272;11.070;2023-12-14T04:27:52;13.98;;;10.23;;
16029;SDS011;34770;49.272;11.070;2023-12-14T04:30:51;15.07;;;9.85;;
16029;SDS011;34770;49.272;11.070;2023-12-14T04:34:19;11.65;;;8.75;;
16029;SDS011;34770;49.272;11.070;2023-12-14T04:37:21;14.05;;;9.05;;
16029;SDS011;34770;49.272;11.070;2023-12-14T04:51:00;10.75;;;8.40;;
16029;SDS011;34770;49.272;11.070;2023-12-14T04:53:27;12.07;;;8.15;;
16029;SDS011;34770;49.272;11.070;2023-12-14T04:55:59;14.55;;;9.40;;
16029;SDS011;34770;49.272;11.070;2023-12-14T04:58:28;14.98;;;9.45;;
16029;SDS011;34770;49.272;11.070;2023-12-14T05:00:53;13.20;;;8.73;;
16029;SDS011;34770;49.272;11.070;2023-12-14T05:03:25;15.05;;;10.93;;
16029;SDS011;34770;49.272;11.070;2023-12-14T05:05:59;12.82;;;9.35;;
16029;SDS011;34770;49.272;11.070;2023-12-14T05:08:50;12.65;;;9.02;;
16029;SDS011;34770;49.272;11.070;2023-12-14T05:11:16;12.52;;;8.35;;
16029;SDS011;34770;49.272;11.070;2023-12-14T05:13:45;14.37;;;10.60;;
16029;SDS011;34770;49.272;11.070;2023-12-14T05:16:13;15.47;;;10.00;;
16029;SDS011;34770;49.272;11.070;2023-12-14T05:18:41;13.87;;;9.77;;
16029;SDS011;34770;49.272;11.070;2023-12-14T05:21:08;15.07;;;10.00;;
16029;SDS011;34770;49.272;11.070;2023-12-14T05:23:35;13.97;;;8.67;;
16029;SDS011;34770;49.272;11.070;2023-12-14T05:26:23;17.80;;;9.47;;
16029;SDS011;34770;49.272;11.070;2023-12-14T05:28:49;13.27;;;9.40;;
16029;SDS011;34770;49.272;11.070;2023-12-14T05:31:23;14.97;;;9.77;;
16029;SDS011;34770;49.272;11.070;2023-12-14T05:37:47;14.27;;;9.80;;
16029;SDS011;34770;49.272;11.070;2023-12-14T05:48:45;12.00;;;8.57;;
16029;SDS011;34770;49.272;11.070;2023-12-14T05:51:36;13.00;;;9.55;;
16029;SDS011;34770;49.272;11.070;2023-12-14T05:54:05;14.43;;;8.87;;
16029;SDS011;34770;49.272;11.070;2023-12-14T05:57:33;11.30;;;8.18;;
16029;SDS011;34770;49.272;11.070;2023-12-14T06:00:26;14.40;;;9.02;;
16029;SDS011;34770;49.272;11.070;2023-12-14T06:03:14;15.27;;;9.75;;
16029;SDS011;34770;49.272;11.070;2023-12-14T06:05:44;15.48;;;8.88;;
16029;SDS011;34770;49.272;11.070;2023-12-14T06:08:10;14.52;;;9.90;;
16029;SDS011;34770;49.272;11.070;2023-12-14T06:10:38;12.93;;;8.73;;
16029;SDS011;34770;49.272;11.070;2023-12-14T06:13:04;15.00;;;11.00;;
16029;SDS011;34770;49.272;11.070;2023-12-14T06:15:29;13.20;;;9.65;;
16029;SDS011;34770;49.272;11.070;2023-12-14T06:17:55;16.00;;;10.25;;
16029;SDS011;34770;49.272;11.070;2023-12-14T06:20:59;16.90;;;12.13;;
16029;SDS011;34770;49.272;11.070;2023-12-14T06:27:02;16.63;;;10.63;;
16029;SDS011;34770;49.272;11.070;2023-12-14T06:33:00;15.18;;;8.85;;
16029;SDS011;34770;49.272;11.070;2023-12-14T06:35:26;10.80;;;8.20;;
16029;SDS011;34770;49.272;11.070;2023-12-14T06:38:09;14.47;;;8.93;;
16029;SDS011;34770;49.272;11.070;2023-12-14T06:41:23;12.47;;;9.23;;
16029;SDS011;34770;49.272;11.070;2023-12-14T06:48:23;15.97;;;10.60;;
16029;SDS011;34770;49.272;11.070;2023-12-14T06:50:49;14.07;;;10.17;;
16029;SDS011;34770;49.272;11.070;2023-12-14T06:53:27;17.13;;;10.37;;
16029;SDS011;34770;49.272;11.070;2023-12-14T06:55:53;19.63;;;12.03;;
16029;SDS011;34770;49.272;11.070;2023-12-14T07:02:25;19.73;;;11.53;;
16029;SDS011;34770;49.272;11.070;2023-12-14T07:05:28;20.33;;;13.10;;
16029;SDS011;34770;49.272;11.070;2023-12-14T07:07:55;19.03;;;12.43;;
16029;SDS011;34770;49.272;11.070;2023-12-14T07:10:21;17.80;;;12.63;;
16029;SDS011;34770;49.272;11.070;2023-12-14T07:12:47;18.10;;;12.50;;
16029;SDS011;34770;49.272;11.070;2023-12-14T07:15:12;16.53;;;11.13;;
16029;SDS011;34770;49.272;11.070;2023-12-14T07:17:38;20.30;;;11.43;;
16029;SDS011;34770;49.272;11.070;2023-12-14T07:20:03;20.43;;;13.40;;
16029;SDS011;34770;49.272;11.070;2023-12-14T07:22:32;20.17;;;13.80;;
16029;SDS011;34770;49.272;11.070;2023-12-14T07:24:57;17.63;;;12.63;;
16029;SDS011;34770;49.272;11.070;2023-12-14T07:27:22;18.35;;;12.65;;
16029;SDS011;34770;49.272;11.070;2023-12-14T07:29:48;17.97;;;13.43;;
16029;SDS011;34770;49.272;11.070;2023-12-14T07:32:13;20.40;;;12.88;;
16029;SDS011;34770;49.272;11.070;2023-12-14T07:34:39;23.67;;;12.45;;
16029;SDS011;34770;49.272;11.070;2023-12-14T07:37:04;19.67;;;12.30;;
16029;SDS011;34770;49.272;11.070;2023-12-14T07:39:31;19.13;;;11.90;;
16029;SDS011;34770;49.272;11.070;2023-12-14T07:41:56;14.63;;;10.80;;
16029;SDS011;34770;49.272;11.070;2023-12-14T08:00:38;15.33;;;11.50;;
16029;SDS011;34770;49.272;11.070;2023-12-14T08:03:04;20.73;;;12.67;;
16029;SDS011;34770;49.272;11.070;2023-12-14T08:05:30;20.53;;;12.40;;
16029;SDS011;34770;49.272;11.070;2023-12-14T08:07:55;22.60;;;12.33;;
16029;SDS011;34770;49.272;11.070;2023-12-14T08:10:21;18.20;;;11.60;;
16029;SDS011;34770;49.272;11.070;2023-12-14T08:12:46;17.10;;;11.63;;
16029;SDS011;34770;49.272;11.070;2023-12-14T08:15:12;20.57;;;12.40;;
16029;SDS011;34770;49.272;11.070;2023-12-14T08:17:38;18.53;;;11.83;;
16029;SDS011;34770;49.272;11.070;2023-12-14T08:20:03;18.77;;;10.83;;
16029;SDS011;34770;49.272;11.070;2023-12-14T08:22:33;18.40;;;11.37;;
16029;SDS011;34770;49.272;11.070;2023-12-14T08:24:59;22.37;;;14.40;;
16029;SDS011;34770;49.272;11.070;2023-12-14T08:27:24;25.30;;;14.17;;
16029;SDS011;34770;49.272;11.070;2023-12-14T08:29:50;19.30;;;12.70;;
16029;SDS011;34770;49.272;11.070;2023-12-14T08:32:15;28.27;;;15.63;;
16029;SDS011;34770;49.272;11.070;2023-12-14T08:34:40;23.57;;;14.03;;
16029;SDS011;34770;49.272;11.070;2023-12-14T08:37:06;22.77;;;13.80;;
16029;SDS011;34770;49.272;11.070;2023-12-14T08:39:31;27.17;;;14.60;;
16029;SDS011;34770;49.272;11.070;2023-12-14T08:41:56;24.67;;;13.80;;
16029;SDS011;34770;49.272;11.070;2023-12-14T08:44:22;24.17;;;14.00;;
16029;SDS011;34770;49.272;11.070;2023-12-14T08:46:48;23.93;;;13.70;;
16029;SDS011;34770;49.272;11.070;2023-12-14T08:49:14;21.80;;;14.07;;
16029;SDS011;34770;49.272;11.070;2023-12-14T08:51:41;21.60;;;13.10;;
16029;SDS011;34770;49.272;11.070;2023-12-14T08:54:06;22.25;;;14.30;;
16029;SDS011;34770;49.272;11.070;2023-12-14T08:56:32;24.57;;;15.03;;
16029;SDS011;34770;49.272;11.070;2023-12-14T08:58:58;25.83;;;14.15;;
16029;SDS011;34770;49.272;11.070;2023-12-14T09:01:24;23.00;;;12.63;;
16029;SDS011;34770;49.272;11.070;2023-12-14T09:03:51;23.00;;;12.47;;
16029;SDS011;34770;49.272;11.070;2023-12-14T09:06:17;18.37;;;11.43;;
16029;SDS011;34770;49.272;11.070;2023-12-14T09:08:46;21.98;;;11.98;;
16029;SDS011;34770;49.272;11.070;2023-12-14T09:11:12;18.08;;;12.55;;
16029;SDS011;34770;49.272;11.070;2023-12-14T09:13:37;19.70;;;11.27;;
16029;SDS011;34770;49.272;11.070;2023-12-14T09:16:03;17.60;;;11.57;;
16029;SDS011;34770;49.272;11.070;2023-12-14T09:18:28;15.10;;;10.65;;
16029;SDS011;34770;49.272;11.070;2023-12-14T09:20:54;15.13;;;11.15;;
16029;SDS011;34770;49.272;11.070;2023-12-14T09:23:19;17.02;;;11.63;;
16029;SDS011;34770;49.272;11.070;2023-12-14T09:25:46;16.73;;;10.40;;
16029;SDS011;34770;49.272;11.070;2023-12-14T09:28:12;15.02;;;10.68;;
16029;SDS011;34770;49.272;11.070;2023-12-14T09:30:37;16.88;;;11.63;;
16029;SDS011;34770;49.272;11.070;2023-12-14T09:33:02;18.42;;;11.00;;
16029;SDS011;34770;49.272;11.070;2023-12-14T09:35:28;16.55;;;11.05;;
16029;SDS011;34770;49.272;11.070;2023-12-14T09:37:53;14.88;;;10.90;;
16029;SDS011;34770;49.272;11.070;2023-12-14T09:40:22;14.05;;;10.05;;
16029;SDS011;34770;49.272;11.070;2023-12-14T09:42:49;14.20;;;9.48;;
16029;SDS011;34770;49.272;11.070;2023-12-14T09:45:16;17.27;;;11.55;;
16029;SDS011;34770;49.272;11.070;2023-12-14T09:47:44;15.38;;;9.88;;
16029;SDS011;34770;49.272;11.070;2023-12-14T09:50:11;17.30;;;11.02;;
16029;SDS011;34770;49.272;11.070;2023-12-14T09:52:39;13.27;;;10.32;;
16029;SDS011;34770;49.272;11.070;2023-12-14T09:55:04;12.20;;;9.18;;
16029;SDS011;34770;49.272;11.070;2023-12-14T09:57:30;14.15;;;10.48;;
16029;SDS011;34770;49.272;11.070;2023-12-14T09:59:56;18.30;;;10.85;;
16029;SDS011;34770;49.272;11.070;2023-12-14T10:02:26;19.77;;;9.20;;
16029;SDS011;34770;49.272;11.070;2023-12-14T10:04:52;14.75;;;10.73;;
16029;SDS011;34770;49.272;11.070;2023-12-14T10:07:18;17.67;;;10.38;;
16029;SDS011;34770;49.272;11.070;2023-12-14T10:09:45;13.70;;;9.55;;
16029;SDS011;34770;49.272;11.070;2023-12-14T10:12:12;15.38;;;9.68;;
16029;SDS011;34770;49.272;11.070;2023-12-14T10:14:37;14.13;;;10.48;;
16029;SDS011;34770;49.272;11.070;2023-12-14T10:17:14;16.25;;;9.90;;
16029;SDS011;34770;49.272;11.070;2023-12-14T10:19:43;16.50;;;9.73;;
16029;SDS011;34770;49.272;11.070;2023-12-14T10:22:10;14.20;;;10.70;;
16029;SDS011;34770;49.272;11.070;2023-12-14T10:24:35;14.93;;;10.38;;
16029;SDS011;34770;49.272;11.070;2023-12-14T10:27:06;14.52;;;8.80;;
16029;SDS011;34770;49.272;11.070;2023-12-14T10:29:36;13.05;;;9.35;;
16029;SDS011;34770;49.272;11.070;2023-12-14T10:32:04;16.45;;;10.07;;
16029;SDS011;34770;49.272;11.070;2023-12-14T10:34:32;18.33;;;10.77;;
16029;SDS011;34770;49.272;11.070;2023-12-14T10:36:58;17.05;;;10.73;;
16029;SDS011;34770;49.272;11.070;2023-12-14T10:39:23;13.20;;;10.27;;
16029;SDS011;34770;49.272;11.070;2023-12-14T10:41:52;12.38;;;9.45;;
16029;SDS011;34770;49.272;11.070;2023-12-14T10:44:21;18.48;;;10.52;;
16029;SDS011;34770;49.272;11.070;2023-12-14T10:46:53;15.27;;;10.70;;
16029;SDS011;34770;49.272;11.070;2023-12-14T10:49:25;15.77;;;10.48;;
16029;SDS011;34770;49.272;11.070;2023-12-14T10:51:54;15.98;;;10.18;;
16029;SDS011;34770;49.272;11.070;2023-12-14T10:54:23;13.32;;;8.52;;
16029;SDS011;34770;49.272;11.070;2023-12-14T10:56:49;10.57;;;7.18;;
16029;SDS011;34770;49.272;11.070;2023-12-14T10:59:19;12.50;;;8.10;;
16029;SDS011;34770;49.272;11.070;2023-12-14T11:01:44;10.65;;;7.70;;
16029;SDS011;34770;49.272;11.070;2023-12-14T11:04:10;12.55;;;8.00;;
16029;SDS011;34770;49.272;11.070;2023-12-14T11:06:39;12.80;;;6.57;;
16029;SDS011;34770;49.272;11.070;2023-12-14T11:09:06;9.65;;;7.03;;
16029;SDS011;34770;49.272;11.070;2023-12-14T11:14:10;11.10;;;7.45;;
16029;SDS011;34770;49.272;11.070;2023-12-14T11:16:37;9.05;;;6.88;;
16029;SDS011;34770;49.272;11.070;2023-12-14T11:21:46;9.07;;;7.13;;
16029;SDS011;34770;49.272;11.070;2023-12-14T11:24:12;8.52;;;7.22;;
16029;SDS011;34770;49.272;11.070;2023-12-14T11:26:38;13.00;;;7.82;;
16029;SDS011;34770;49.272;11.070;2023-12-14T11:29:04;9.15;;;6.88;;
16029;SDS011;34770;49.272;11.070;2023-12-14T11:31:35;12.57;;;7.30;;
16029;SDS011;34770;49.272;11.070;2023-12-14T11:34:00;9.20;;;6.97;;
16029;SDS011;34770;49.272;11.070;2023-12-14T11:36:28;11.23;;;7.40;;
16029;SDS011;34770;49.272;11.070;2023-12-14T11:38:54;9.00;;;7.03;;
16029;SDS011;34770;49.272;11.070;2023-12-14T11:41:23;9.23;;;7.43;;
16029;SDS011;34770;49.272;11.070;2023-12-14T11:43:50;9.68;;;7.43;;
16029;SDS011;34770;49.272;11.070;2023-12-14T11:46:16;9.15;;;6.53;;
16029;SDS011;34770;49.272;11.070;2023-12-14T11:48:46;11.57;;;7.70;;
16029;SDS011;34770;49.272;11.070;2023-12-14T11:51:14;9.23;;;7.32;;
16029;SDS011;34770;49.272;11.070;2023-12-14T11:53:43;15.25;;;6.57;;
16029;SDS011;34770;49.272;11.070;2023-12-14T11:56:10;12.50;;;7.00;;
16029;SDS011;34770;49.272;11.070;2023-12-14T11:58:36;9.32;;;8.05;;
16029;SDS011;34770;49.272;11.070;2023-12-14T12:01:13;11.43;;;6.95;;
16029;SDS011;34770;49.272;11.070;2023-12-14T12:03:39;9.45;;;6.65;;
16029;SDS011;34770;49.272;11.070;2023-12-14T12:06:05;11.93;;;6.97;;
16029;SDS011;34770;49.272;11.070;2023-12-14T12:08:31;9.25;;;6.22;;
16029;SDS011;34770;49.272;11.070;2023-12-14T12:11:08;9.85;;;6.20;;
16029;SDS011;34770;49.272;11.070;2023-12-14T12:13:34;10.45;;;6.95;;
16029;SDS011;34770;49.272;11.070;2023-12-14T12:16:00;8.63;;;6.88;;
16029;SDS011;34770;49.272;11.070;2023-12-14T12:18:25;6.95;;;5.72;;
16029;SDS011;34770;49.272;11.070;2023-12-14T12:20:51;9.65;;;6.20;;
16029;SDS011;34770;49.272;11.070;2023-12-14T12:23:19;9.48;;;6.05;;
16029;SDS011;34770;49.272;11.070;2023-12-14T12:25:47;8.88;;;6.32;;
16029;SDS011;34770;49.272;11.070;2023-12-14T12:28:13;9.75;;;5.85;;
16029;SDS011;34770;49.272;11.070;2023-12-14T12:30:38;6.85;;;5.25;;
16029;SDS011;34770;49.272;11.070;2023-12-14T12:33:04;9.75;;;5.03;;
16029;SDS011;34770;49.272;11.070;2023-12-14T12:35:29;10.07;;;5.22;;
16029;SDS011;34770;49.272;11.070;2023-12-14T12:37:55;7.13;;;4.35;;
16029;SDS011;34770;49.272;11.070;2023-12-14T12:40:21;9.40;;;5.13;;
16029;SDS011;34770;49.272;11.070;2023-12-14T12:42:47;9.43;;;5.32;;
16029;SDS011;34770;49.272;11.070;2023-12-14T12:45:15;9.35;;;5.50;;
16029;SDS011;34770;49.272;11.070;2023-12-14T12:47:46;10.68;;;6.50;;
16029;SDS011;34770;49.272;11.070;2023-12-14T12:50:12;13.75;;;9.50;;
16029;SDS011;34770;49.272;11.070;2023-12-14T12:52:38;11.27;;;7.70;;
16029;SDS011;34770;49.272;11.070;2023-12-14T12:55:07;9.98;;;5.95;;
16029;SDS011;34770;49.272;11.070;2023-12-14T12:57:33;6.25;;;4.82;;
16029;SDS011;34770;49.272;11.070;2023-12-14T12:59:58;7.78;;;5.00;;
16029;SDS011;34770;49.272;11.070;2023-12-14T13:02:24;5.40;;;4.40;;
16029;SDS011;34770;49.272;11.070;2023-12-14T13:04:49;24.48;;;13.13;;
16029;SDS011;34770;49.272;11.070;2023-12-14T13:07:15;10.23;;;5.63;;
16029;SDS011;34770;49.272;11.070;2023-12-14T13:09:41;6.88;;;5.15;;
16029;SDS011;34770;49.272;11.070;2023-12-14T13:12:06;7.38;;;5.35;;
16029;SDS011;34770;49.272;11.070;2023-12-14T13:14:32;15.63;;;7.07;;
16029;SDS011;34770;49.272;11.070;2023-12-14T13:16:57;8.80;;;5.40;;
16029;SDS011;34770;49.272;11.070;2023-12-14T13:19:25;7.70;;;5.32;;
16029;SDS011;34770;49.272;11.070;2023-12-14T13:21:51;7.05;;;5.20;;
16029;SDS011;34770;49.272;11.070;2023-12-14T13:24:17;8.25;;;5.45;;
16029;SDS011;34770;49.272;11.070;2023-12-14T13:26:42;7.60;;;6.03;;
16029;SDS011;34770;49.272;11.070;2023-12-14T13:29:08;10.57;;;6.40;;
16029;SDS011;34770;49.272;11.070;2023-12-14T13:31:33;10.32;;;6.22;;
16029;SDS011;34770;49.272;11.070;2023-12-14T13:33:59;7.20;;;5.68;;
16029;SDS011;34770;49.272;11.070;2023-12-14T13:36:24;7.55;;;5.72;;
16029;SDS011;34770;49.272;11.070;2023-12-14T13:38:49;11.13;;;5.95;;
16029;SDS011;34770;49.272;11.070;2023-12-14T13:41:15;8.27;;;5.57;;
16029;SDS011;34770;49.272;11.070;2023-12-14T13:43:40;11.55;;;6.10;;
16029;SDS011;34770;49.272;11.070;2023-12-14T13:46:05;9.00;;;6.55;;
16029;SDS011;34770;49.272;11.070;2023-12-14T13:48:31;12.25;;;6.60;;
16029;SDS011;34770;49.272;11.070;2023-12-14T13:50:56;9.88;;;5.53;;
16029;SDS011;34770;49.272;11.070;2023-12-14T13:53:22;20.08;;;6.55;;
16029;SDS011;34770;49.272;11.070;2023-12-14T13:55:48;10.60;;;5.88;;
16029;SDS011;34770;49.272;11.070;2023-12-14T13:58:14;7.70;;;5.68;;
16029;SDS011;34770;49.272;11.070;2023-12-14T14:00:40;11.60;;;6.20;;
16029;SDS011;34770;49.272;11.070;2023-12-14T14:03:06;11.30;;;6.32;;
16029;SDS011;34770;49.272;11.070;2023-12-14T14:05:31;8.05;;;6.03;;
16029;SDS011;34770;49.272;11.070;2023-12-14T14:07:57;11.48;;;6.50;;
16029;SDS011;34770;49.272;11.070;2023-12-14T14:10:23;9.70;;;6.72;;
16029;SDS011;34770;49.272;11.070;2023-12-14T14:12:49;11.65;;;7.07;;
16029;SDS011;34770;49.272;11.070;2023-12-14T14:15:15;11.10;;;7.38;;
16029;SDS011;34770;49.272;11.070;2023-12-14T14:17:40;12.43;;;7.15;;
16029;SDS011;34770;49.272;11.070;2023-12-14T14:20:06;12.30;;;6.93;;
16029;SDS011;34770;49.272;11.070;2023-12-14T14:22:32;11.27;;;8.48;;
16029;SDS011;34770;49.272;11.070;2023-12-14T14:24:58;11.23;;;7.63;;
16029;SDS011;34770;49.272;11.070;2023-12-14T14:27:24;16.10;;;7.80;;
16029;SDS011;34770;49.272;11.070;2023-12-14T14:29:50;10.13;;;7.10;;
16029;SDS011;34770;49.272;11.070;2023-12-14T14:32:18;10.77;;;7.82;;
16029;SDS011;34770;49.272;11.070;2023-12-14T14:34:43;15.30;;;8.13;;
16029;SDS011;34770;49.272;11.070;2023-12-14T14:37:09;11.70;;;8.32;;
16029;SDS011;34770;49.272;11.070;2023-12-14T14:39:34;13.88;;;8.00;;
16029;SDS011;34770;49.272;11.070;2023-12-14T14:41:59;13.82;;;7.95;;
16029;SDS011;34770;49.272;11.070;2023-12-14T14:44:25;10.38;;;7.63;;
16029;SDS011;34770;49.272;11.070;2023-12-14T14:46:50;13.60;;;7.93;;
16029;SDS011;34770;49.272;11.070;2023-12-14T14:49:16;9.93;;;6.45;;
16029;SDS011;34770;49.272;11.070;2023-12-14T14:51:42;13.73;;;7.40;;
16029;SDS011;34770;49.272;11.070;2023-12-14T14:54:07;11.13;;;6.63;;
16029;SDS011;34770;49.272;11.070;2023-12-14T14:56:33;9.82;;;6.57;;
16029;SDS011;34770;49.272;11.070;2023-12-14T14:58:58;11.15;;;7.82;;
16029;SDS011;34770;49.272;11.070;2023-12-14T15:01:23;8.77;;;6.73;;
16029;SDS011;34770;49.272;11.070;2023-12-14T15:03:49;12.45;;;7.25;;
16029;SDS011;34770;49.272;11.070;2023-12-14T15:06:14;7.90;;;6.07;;
16029;SDS011;34770;49.272;11.070;2023-12-14T15:08:40;10.02;;;7.18;;
16029;SDS011;34770;49.272;11.070;2023-12-14T15:11:06;8.98;;;6.00;;
16029;SDS011;34770;49.272;11.070;2023-12-14T15:13:34;7.95;;;6.22;;
16029;SDS011;34770;49.272;11.070;2023-12-14T15:16:00;8.75;;;6.07;;
16029;SDS011;34770;49.272;11.070;2023-12-14T15:18:25;8.20;;;6.07;;
16029;SDS011;34770;49.272;11.070;2023-12-14T15:20:50;8.27;;;6.65;;
16029;SDS011;34770;49.272;11.070;2023-12-14T15:23:17;10.25;;;6.80;;
16029;SDS011;34770;49.272;11.070;2023-12-14T15:25:43;7.22;;;6.03;;
16029;SDS011;34770;49.272;11.070;2023-12-14T15:28:09;7.03;;;5.47;;
16029;SDS011;34770;49.272;11.070;2023-12-14T15:30:34;10.10;;;5.55;;
16029;SDS011;34770;49.272;11.070;2023-12-14T15:32:59;7.90;;;6.10;;
16029;SDS011;34770;49.272;11.070;2023-12-14T15:35:25;8.25;;;5.80;;
16029;SDS011;34770;49.272;11.070;2023-12-14T15:37:50;7.00;;;5.15;;
16029;SDS011;34770;49.272;11.070;2023-12-14T15:40:16;9.90;;;6.00;;
16029;SDS011;34770;49.272;11.070;2023-12-14T15:42:41;7.40;;;5.07;;
16029;SDS011;34770;49.272;11.070;2023-12-14T15:45:07;7.43;;;5.28;;
16029;SDS011;34770;49.272;11.070;2023-12-14T15:47:33;7.78;;;6.13;;
16029;SDS011;34770;49.272;11.070;2023-12-14T15:49:58;6.72;;;5.55;;
16029;SDS011;34770;49.272;11.070;2023-12-14T15:52:24;7.32;;;5.45;;
16029;SDS011;34770;49.272;11.070;2023-12-14T15:54:49;6.60;;;5.33;;
16029;SDS011;34770;49.272;11.070;2023-12-14T15:57:14;6.80;;;5.40;;
16029;SDS011;34770;49.272;11.070;2023-12-14T15:59:40;8.93;;;6.25;;
16029;SDS011;34770;49.272;11.070;2023-12-14T16:02:06;17.55;;;10.02;;
16029;SDS011;34770;49.272;11.070;2023-12-14T16:04:31;10.82;;;6.40;;
16029;SDS011;34770;49.272;11.070;2023-12-14T16:06:56;8.18;;;6.90;;
16029;SDS011;34770;49.272;11.070;2023-12-14T16:09:23;10.10;;;7.00;;
16029;SDS011;34770;49.272;11.070;2023-12-14T16:11:48;10.13;;;6.65;;
16029;SDS011;34770;49.272;11.070;2023-12-14T16:14:14;8.07;;;6.00;;
16029;SDS011;34770;49.272;11.070;2023-12-14T16:16:39;8.50;;;7.22;;
16029;SDS011;34770;49.272;11.070;2023-12-14T16:19:04;9.05;;;7.70;;
16029;SDS011;34770;49.272;11.070;2023-12-14T16:21:30;9.87;;;7.53;;
16029;SDS011;34770;49.272;11.070;2023-12-14T16:23:57;11.20;;;8.10;;
16029;SDS011;34770;49.272;11.070;2023-12-14T16:26:22;9.77;;;7.30;;
16029;SDS011;34770;49.272;11.070;2023-12-14T16:28:47;9.10;;;7.43;;
16029;SDS011;34770;49.272;11.070;2023-12-14T16:31:13;9.93;;;8.00;;
16029;SDS011;34770;49.272;11.070;2023-12-14T16:33:38;8.93;;;6.65;;
16029;SDS011;34770;49.272;11.070;2023-12-14T16:36:14;9.98;;;7.13;;
16029;SDS011;34770;49.272;11.070;2023-12-14T16:38:40;10.80;;;8.95;;
16029;SDS011;34770;49.272;11.070;2023-12-14T16:41:06;10.13;;;7.87;;
16029;SDS011;34770;49.272;11.070;2023-12-14T16:43:32;13.33;;;9.40;;
16029;SDS011;34770;49.272;11.070;2023-12-14T16:45:58;9.85;;;7.38;;
16029;SDS011;34770;49.272;11.070;2023-12-14T16:48:23;9.80;;;7.37;;
16029;SDS011;34770;49.272;11.070;2023-12-14T16:50:49;7.93;;;7.13;;
16029;SDS011;34770;49.272;11.070;2023-12-14T16:53:21;10.20;;;7.13;;
16029;SDS011;34770;49.272;11.070;2023-12-14T16:55:48;8.02;;;6.70;;
16029;SDS011;34770;49.272;11.070;2023-12-14T16:58:15;9.38;;;6.30;;
16029;SDS011;34770;49.272;11.070;2023-12-14T17:00:40;12.45;;;8.15;;
16029;SDS011;34770;49.272;11.070;2023-12-14T17:03:06;9.43;;;6.97;;
16029;SDS011;34770;49.272;11.070;2023-12-14T17:05:31;9.83;;;7.00;;
16029;SDS011;34770;49.272;11.070;2023-12-14T17:07:56;10.17;;;7.13;;
16029;SDS011;34770;49.272;11.070;2023-12-14T17:10:22;8.50;;;6.68;;
16029;SDS011;34770;49.272;11.070;2023-12-14T17:12:48;10.23;;;6.18;;
16029;SDS011;34770;49.272;11.070;2023-12-14T17:15:13;8.07;;;6.90;;
16029;SDS011;34770;49.272;11.070;2023-12-14T17:17:39;7.30;;;6.40;;
16029;SDS011;34770;49.272;11.070;2023-12-14T17:20:05;7.25;;;5.82;;
16029;SDS011;34770;49.272;11.070;2023-12-14T17:22:31;8.48;;;6.50;;
16029;SDS011;34770;49.272;11.070;2023-12-14T17:25:02;7.95;;;5.50;;
16029;SDS011;34770;49.272;11.070;2023-12-14T17:27:31;6.63;;;5.73;;
16029;SDS011;34770;49.272;11.070;2023-12-14T17:29:57;9.52;;;6.47;;
16029;SDS011;34770;49.272;11.070;2023-12-14T17:32:22;7.50;;;5.80;;
16029;SDS011;34770;49.272;11.070;2023-12-14T17:34:48;7.82;;;6.70;;
16029;SDS011;34770;49.272;11.070;2023-12-14T17:37:13;10.45;;;6.95;;
16029;SDS011;34770;49.272;11.070;2023-12-14T17:39:38;9.05;;;6.75;;
16029;SDS011;34770;49.272;11.070;2023-12-14T17:42:05;7.77;;;6.03;;
16029;SDS011;34770;49.272;11.070;2023-12-14T17:44:30;8.57;;;6.80;;
16029;SDS011;34770;49.272;11.070;2023-12-14T17:46:56;8.80;;;6.37;;
16029;SDS011;34770;49.272;11.070;2023-12-14T17:49:21;7.70;;;6.20;;
16029;SDS011;34770;49.272;11.070;2023-12-14T17:51:46;8.40;;;6.50;;
16029;SDS011;34770;49.272;11.070;2023-12-14T17:54:12;7.43;;;5.47;;
16029;SDS011;34770;49.272;11.070;2023-12-14T17:56:41;8.63;;;6.50;;
16029;SDS011;34770;49.272;11.070;2023-12-14T17:59:06;8.73;;;6.20;;
16029;SDS011;34770;49.272;11.070;2023-12-14T18:01:32;7.10;;;6.35;;
16029;SDS011;34770;49.272;11.070;2023-12-14T18:03:57;8.05;;;6.35;;
16029;SDS011;34770;49.272;11.070;2023-12-14T18:06:22;6.65;;;5.65;;
16029;SDS011;34770;49.272;11.070;2023-12-14T18:08:48;5.85;;;4.95;;
16029;SDS011;34770;49.272;11.070;2023-12-14T18:11:13;6.70;;;5.80;;
16029;SDS011;34770;49.272;11.070;2023-12-14T18:13:38;6.57;;;4.38;;
16029;SDS011;34770;49.272;11.070;2023-12-14T18:16:04;5.55;;;4.93;;
16029;SDS011;34770;49.272;11.070;2023-12-14T18:18:31;10.60;;;8.03;;
16029;SDS011;34770;49.272;11.070;2023-12-14T18:20:57;6.90;;;6.07;;
16029;SDS011;34770;49.272;11.070;2023-12-14T18:23:22;6.93;;;5.70;;
16029;SDS011;34770;49.272;11.070;2023-12-14T18:25:47;5.70;;;4.47;;
16029;SDS011;34770;49.272;11.070;2023-12-14T18:28:13;8.25;;;5.38;;
16029;SDS011;34770;49.272;11.070;2023-12-14T18:30:39;6.03;;;5.37;;
16029;SDS011;34770;49.272;11.070;2023-12-14T18:33:04;10.43;;;8.10;;
16029;SDS011;34770;49.272;11.070;2023-12-14T18:35:30;6.50;;;5.70;;
16029;SDS011;34770;49.272;11.070;2023-12-14T18:37:55;7.23;;;5.20;;
16029;SDS011;34770;49.272;11.070;2023-12-14T18:40:23;5.37;;;4.87;;
16029;SDS011;34770;49.272;11.070;2023-12-14T18:42:50;6.13;;;5.53;;
16029;SDS011;34770;49.272;11.070;2023-12-14T18:45:16;5.93;;;5.40;;
16029;SDS011;34770;49.272;11.070;2023-12-14T18:47:41;5.50;;;5.00;;
16029;SDS011;34770;49.272;11.070;2023-12-14T18:50:07;6.30;;;4.77;;
16029;SDS011;34770;49.272;11.070;2023-12-14T18:52:33;6.00;;;5.00;;
16029;SDS011;34770;49.272;11.070;2023-12-14T18:54:58;7.67;;;5.00;;
16029;SDS011;34770;49.272;11.070;2023-12-14T18:57:23;7.07;;;5.63;;
16029;SDS011;34770;49.272;11.070;2023-12-14T18:59:49;6.90;;;5.10;;
16029;SDS011;34770;49.272;11.070;2023-12-14T19:02:15;7.93;;;6.07;;
16029;SDS011;34770;49.272;11.070;2023-12-14T19:04:40;5.63;;;5.13;;
16029;SDS011;34770;49.272;11.070;2023-12-14T19:07:06;6.13;;;5.00;;
16029;SDS011;34770;49.272;11.070;2023-12-14T19:09:32;5.37;;;4.87;;
16029;SDS011;34770;49.272;11.070;2023-12-14T19:11:57;8.00;;;4.97;;